sensor_id;sensor_type;location;lat;lon;timestamp;P1;durP1;ratioP1;P2;durP2;ratioP2
85381;SDS011;75790;40.308;44.272;2024-02-04T00:01:52;100.40;;;37.08;;
85381;SDS011;75790;40.308;44.272;2024-02-04T00:04:18;94.60;;;34.90;;
85381;SDS011;75790;40.308;44.272;2024-02-04T00:06:44;85.18;;;29.77;;
85381;SDS011;75790;40.308;44.272;2024-02-04T00:09:10;91.68;;;32.05;;
85381;SDS011;75790;40.308;44.272;2024-02-04T00:11:36;92.13;;;33.83;;
85381;SDS011;75790;40.308;44.272;2024-02-04T00:14:01;82.57;;;29.08;;
85381;SDS011;75790;40.308;44.272;2024-02-04T00:16:28;81.72;;;30.90;;
85381;SDS011;75790;40.308;44.272;2024-02-04T00:18:54;84.43;;;31.70;;
85381;SDS011;75790;40.308;44.272;2024-02-04T00:21:20;125.35;;;42.50;;
85381;SDS011;75790;40.308;44.272;2024-02-04T00:23:46;118.65;;;41.45;;
85381;SDS011;75790;40.308;44.272;2024-02-04T00:26:11;106.15;;;39.17;;
85381;SDS011;75790;40.308;44.272;2024-02-04T00:28:37;129.77;;;44.42;;
85381;SDS011;75790;40.308;44.272;2024-02-04T00:31:04;128.48;;;41.85;;
85381;SDS011;75790;40.308;44.272;2024-02-04T00:33:30;105.95;;;38.17;;
85381;SDS011;75790;40.308;44.272;2024-02-04T00:35:56;93.53;;;33.65;;
85381;SDS011;75790;40.308;44.272;2024-02-04T00:38:22;106.95;;;37.38;;
85381;SDS011;75790;40.308;44.272;2024-02-04T00:40:47;95.75;;;34.17;;
85381;SDS011;75790;40.308;44.272;2024-02-04T00:43:13;122.93;;;39.90;;
85381;SDS011;75790;40.308;44.272;2024-02-04T00:45:39;108.95;;;38.38;;
85381;SDS011;75790;40.308;44.272;2024-02-04T00:48:05;108.90;;;39.20;;
85381;SDS011;75790;40.308;44.272;2024-02-04T00:50:31;106.45;;;39.83;;
85381;SDS011;75790;40.308;44.272;2024-02-04T00:52:57;103.18;;;36.28;;
85381;SDS011;75790;40.308;44.272;2024-02-04T00:55:22;121.40;;;41.25;;
85381;SDS011;75790;40.308;44.272;2024-02-04T00:57:48;120.03;;;41.13;;
85381;SDS011;75790;40.308;44.272;2024-02-04T01:00:14;127.57;;;44.75;;
85381;SDS011;75790;40.308;44.272;2024-02-04T01:02:40;127.63;;;42.35;;
85381;SDS011;75790;40.308;44.272;2024-02-04T01:05:06;130.27;;;43.30;;
85381;SDS011;75790;40.308;44.272;2024-02-04T01:07:32;119.13;;;42.03;;
85381;SDS011;75790;40.308;44.272;2024-02-04T01:09:58;124.13;;;44.05;;
85381;SDS011;75790;40.308;44.272;2024-02-04T01:12:24;119.28;;;41.85;;
85381;SDS011;75790;40.308;44.272;2024-02-04T01:14:50;117.15;;;40.72;;
85381;SDS011;75790;40.308;44.272;2024-02-04T01:17:15;133.60;;;45.72;;
85381;SDS011;75790;40.308;44.272;2024-02-04T01:19:41;117.85;;;39.97;;
85381;SDS011;75790;40.308;44.272;2024-02-04T01:22:07;129.98;;;44.28;;
85381;SDS011;75790;40.308;44.272;2024-02-04T01:24:33;124.35;;;42.95;;
85381;SDS011;75790;40.308;44.272;2024-02-04T01:26:58;126.68;;;44.70;;
85381;SDS011;75790;40.308;44.272;2024-02-04T01:29:24;98.47;;;35.75;;
85381;SDS011;75790;40.308;44.272;2024-02-04T01:31:50;130.85;;;42.83;;
85381;SDS011;75790;40.308;44.272;2024-02-04T01:34:16;120.88;;;42.17;;
85381;SDS011;75790;40.308;44.272;2024-02-04T01:36:42;124.38;;;43.17;;
85381;SDS011;75790;40.308;44.272;2024-02-04T01:39:08;127.78;;;43.33;;
85381;SDS011;75790;40.308;44.272;2024-02-04T01:41:35;132.65;;;44.72;;
85381;SDS011;75790;40.308;44.272;2024-02-04T01:44:01;112.35;;;39.03;;
85381;SDS011;75790;40.308;44.272;2024-02-04T01:46:28;117.57;;;40.63;;
85381;SDS011;75790;40.308;44.272;2024-02-04T01:48:54;126.80;;;43.42;;
85381;SDS011;75790;40.308;44.272;2024-02-04T01:51:21;129.90;;;42.90;;
85381;SDS011;75790;40.308;44.272;2024-02-04T01:53:47;130.32;;;43.42;;
85381;SDS011;75790;40.308;44.272;2024-02-04T01:56:13;123.95;;;42.55;;
85381;SDS011;75790;40.308;44.272;2024-02-04T01:58:39;108.53;;;37.53;;
85381;SDS011;75790;40.308;44.272;2024-02-04T02:01:05;125.03;;;41.78;;
85381;SDS011;75790;40.308;44.272;2024-02-04T02:03:31;112.88;;;40.35;;
85381;SDS011;75790;40.308;44.272;2024-02-04T02:05:58;106.13;;;38.03;;
85381;SDS011;75790;40.308;44.272;2024-02-04T02:08:24;120.53;;;40.67;;
85381;SDS011;75790;40.308;44.272;2024-02-04T02:10:51;111.00;;;39.17;;
85381;SDS011;75790;40.308;44.272;2024-02-04T02:13:23;106.45;;;37.63;;
85381;SDS011;75790;40.308;44.272;2024-02-04T02:15:56;96.78;;;35.15;;
85381;SDS011;75790;40.308;44.272;2024-02-04T02:21:47;82.93;;;31.85;;
85381;SDS011;75790;40.308;44.272;2024-02-04T02:26:50;69.25;;;26.88;;
85381;SDS011;75790;40.308;44.272;2024-02-04T02:29:16;69.47;;;24.48;;
85381;SDS011;75790;40.308;44.272;2024-02-04T02:31:42;64.80;;;24.60;;
85381;SDS011;75790;40.308;44.272;2024-02-04T02:34:09;87.57;;;31.98;;
85381;SDS011;75790;40.308;44.272;2024-02-04T02:36:42;67.38;;;25.40;;
85381;SDS011;75790;40.308;44.272;2024-02-04T02:39:30;71.90;;;28.33;;
85381;SDS011;75790;40.308;44.272;2024-02-04T02:41:59;90.15;;;30.35;;
85381;SDS011;75790;40.308;44.272;2024-02-04T02:44:25;90.20;;;32.22;;
85381;SDS011;75790;40.308;44.272;2024-02-04T02:46:52;99.97;;;36.17;;
85381;SDS011;75790;40.308;44.272;2024-02-04T02:49:20;109.53;;;38.70;;
85381;SDS011;75790;40.308;44.272;2024-02-04T02:51:45;107.25;;;37.53;;
85381;SDS011;75790;40.308;44.272;2024-02-04T02:54:11;119.28;;;41.22;;
85381;SDS011;75790;40.308;44.272;2024-02-04T02:56:37;120.10;;;41.25;;
85381;SDS011;75790;40.308;44.272;2024-02-04T02:59:03;115.40;;;39.05;;
85381;SDS011;75790;40.308;44.272;2024-02-04T03:01:30;130.18;;;43.35;;
85381;SDS011;75790;40.308;44.272;2024-02-04T03:03:56;130.88;;;41.80;;
85381;SDS011;75790;40.308;44.272;2024-02-04T03:06:21;127.30;;;44.13;;
85381;SDS011;75790;40.308;44.272;2024-02-04T03:08:47;105.60;;;37.95;;
85381;SDS011;75790;40.308;44.272;2024-02-04T03:11:13;127.25;;;42.28;;
85381;SDS011;75790;40.308;44.272;2024-02-04T03:13:39;125.63;;;40.80;;
85381;SDS011;75790;40.308;44.272;2024-02-04T03:16:11;116.05;;;41.92;;
85381;SDS011;75790;40.308;44.272;2024-02-04T03:18:41;114.03;;;40.58;;
85381;SDS011;75790;40.308;44.272;2024-02-04T03:21:16;120.05;;;39.78;;
85381;SDS011;75790;40.308;44.272;2024-02-04T03:23:43;115.03;;;41.85;;
85381;SDS011;75790;40.308;44.272;2024-02-04T03:26:09;119.90;;;40.10;;
85381;SDS011;75790;40.308;44.272;2024-02-04T03:28:36;120.75;;;41.03;;
85381;SDS011;75790;40.308;44.272;2024-02-04T03:31:02;109.88;;;37.97;;
85381;SDS011;75790;40.308;44.272;2024-02-04T03:33:28;105.53;;;35.28;;
85381;SDS011;75790;40.308;44.272;2024-02-04T03:35:54;111.00;;;38.60;;
85381;SDS011;75790;40.308;44.272;2024-02-04T03:38:20;111.03;;;38.45;;
85381;SDS011;75790;40.308;44.272;2024-02-04T03:40:46;115.28;;;38.83;;
85381;SDS011;75790;40.308;44.272;2024-02-04T03:43:14;116.25;;;38.30;;
85381;SDS011;75790;40.308;44.272;2024-02-04T03:45:40;97.18;;;34.72;;
85381;SDS011;75790;40.308;44.272;2024-02-04T03:48:05;111.15;;;38.70;;
85381;SDS011;75790;40.308;44.272;2024-02-04T03:50:31;109.85;;;36.75;;
85381;SDS011;75790;40.308;44.272;2024-02-04T03:52:57;117.75;;;40.85;;
85381;SDS011;75790;40.308;44.272;2024-02-04T03:55:23;103.45;;;36.65;;
85381;SDS011;75790;40.308;44.272;2024-02-04T03:57:49;100.53;;;37.42;;
85381;SDS011;75790;40.308;44.272;2024-02-04T04:00:15;115.25;;;40.53;;
85381;SDS011;75790;40.308;44.272;2024-02-04T04:02:41;105.10;;;36.40;;
85381;SDS011;75790;40.308;44.272;2024-02-04T04:05:10;105.00;;;36.67;;
85381;SDS011;75790;40.308;44.272;2024-02-04T04:07:40;107.03;;;36.75;;
85381;SDS011;75790;40.308;44.272;2024-02-04T04:10:06;101.70;;;37.10;;
85381;SDS011;75790;40.308;44.272;2024-02-04T04:12:32;94.30;;;31.70;;
85381;SDS011;75790;40.308;44.272;2024-02-04T04:14:58;99.25;;;35.25;;
85381;SDS011;75790;40.308;44.272;2024-02-04T04:17:24;97.28;;;36.63;;
85381;SDS011;75790;40.308;44.272;2024-02-04T04:19:49;99.75;;;37.45;;
85381;SDS011;75790;40.308;44.272;2024-02-04T04:22:15;95.55;;;33.80;;
85381;SDS011;75790;40.308;44.272;2024-02-04T04:24:41;97.97;;;36.50;;
85381;SDS011;75790;40.308;44.272;2024-02-04T04:27:07;89.28;;;33.05;;
85381;SDS011;75790;40.308;44.272;2024-02-04T04:29:33;106.28;;;37.95;;
85381;SDS011;75790;40.308;44.272;2024-02-04T04:31:59;110.28;;;37.95;;
85381;SDS011;75790;40.308;44.272;2024-02-04T04:34:24;109.53;;;38.10;;
85381;SDS011;75790;40.308;44.272;2024-02-04T04:36:50;110.93;;;40.47;;
85381;SDS011;75790;40.308;44.272;2024-02-04T04:39:16;110.53;;;39.70;;
85381;SDS011;75790;40.308;44.272;2024-02-04T04:41:43;110.18;;;38.45;;
85381;SDS011;75790;40.308;44.272;2024-02-04T04:44:09;115.50;;;39.13;;
85381;SDS011;75790;40.308;44.272;2024-02-04T04:46:38;122.78;;;41.67;;
85381;SDS011;75790;40.308;44.272;2024-02-04T04:49:07;94.43;;;32.08;;
85381;SDS011;75790;40.308;44.272;2024-02-04T04:51:33;125.05;;;41.28;;
85381;SDS011;75790;40.308;44.272;2024-02-04T04:53:58;96.80;;;34.17;;
85381;SDS011;75790;40.308;44.272;2024-02-04T04:56:24;119.03;;;41.33;;
85381;SDS011;75790;40.308;44.272;2024-02-04T04:58:50;111.60;;;38.63;;
85381;SDS011;75790;40.308;44.272;2024-02-04T05:01:16;107.47;;;38.33;;
85381;SDS011;75790;40.308;44.272;2024-02-04T05:03:42;112.53;;;40.50;;
85381;SDS011;75790;40.308;44.272;2024-02-04T05:06:09;117.43;;;40.90;;
85381;SDS011;75790;40.308;44.272;2024-02-04T05:08:34;119.38;;;41.97;;
85381;SDS011;75790;40.308;44.272;2024-02-04T05:11:00;117.63;;;42.45;;
85381;SDS011;75790;40.308;44.272;2024-02-04T05:13:26;116.80;;;40.47;;
85381;SDS011;75790;40.308;44.272;2024-02-04T05:15:52;122.78;;;43.15;;
85381;SDS011;75790;40.308;44.272;2024-02-04T05:18:18;131.55;;;43.22;;
85381;SDS011;75790;40.308;44.272;2024-02-04T05:20:44;100.65;;;37.03;;
85381;SDS011;75790;40.308;44.272;2024-02-04T05:23:10;123.80;;;43.08;;
85381;SDS011;75790;40.308;44.272;2024-02-04T05:25:35;112.22;;;39.95;;
85381;SDS011;75790;40.308;44.272;2024-02-04T05:28:02;106.65;;;38.67;;
85381;SDS011;75790;40.308;44.272;2024-02-04T05:30:28;119.90;;;40.60;;
85381;SDS011;75790;40.308;44.272;2024-02-04T05:32:54;114.38;;;39.20;;
85381;SDS011;75790;40.308;44.272;2024-02-04T05:35:20;102.10;;;35.60;;
85381;SDS011;75790;40.308;44.272;2024-02-04T05:37:46;125.80;;;43.05;;
85381;SDS011;75790;40.308;44.272;2024-02-04T05:40:11;109.75;;;37.97;;
85381;SDS011;75790;40.308;44.272;2024-02-04T05:42:39;117.03;;;43.35;;
85381;SDS011;75790;40.308;44.272;2024-02-04T05:45:05;118.93;;;40.40;;
85381;SDS011;75790;40.308;44.272;2024-02-04T05:47:31;104.97;;;37.42;;
85381;SDS011;75790;40.308;44.272;2024-02-04T05:49:57;111.63;;;39.38;;
85381;SDS011;75790;40.308;44.272;2024-02-04T05:52:23;121.13;;;42.97;;
85381;SDS011;75790;40.308;44.272;2024-02-04T05:54:49;124.72;;;45.40;;
85381;SDS011;75790;40.308;44.272;2024-02-04T05:57:15;113.53;;;38.72;;
85381;SDS011;75790;40.308;44.272;2024-02-04T05:59:40;103.95;;;37.15;;
85381;SDS011;75790;40.308;44.272;2024-02-04T06:02:06;101.63;;;37.22;;
85381;SDS011;75790;40.308;44.272;2024-02-04T06:04:32;124.32;;;43.00;;
85381;SDS011;75790;40.308;44.272;2024-02-04T06:06:58;112.32;;;40.60;;
85381;SDS011;75790;40.308;44.272;2024-02-04T06:09:23;115.57;;;42.88;;
85381;SDS011;75790;40.308;44.272;2024-02-04T06:11:49;112.70;;;41.65;;
85381;SDS011;75790;40.308;44.272;2024-02-04T06:14:15;99.28;;;36.17;;
85381;SDS011;75790;40.308;44.272;2024-02-04T06:16:41;103.70;;;38.20;;
85381;SDS011;75790;40.308;44.272;2024-02-04T06:19:07;91.82;;;33.10;;
85381;SDS011;75790;40.308;44.272;2024-02-04T06:21:34;78.10;;;28.27;;
85381;SDS011;75790;40.308;44.272;2024-02-04T06:24:00;78.40;;;30.65;;
85381;SDS011;75790;40.308;44.272;2024-02-04T06:26:25;93.85;;;36.35;;
85381;SDS011;75790;40.308;44.272;2024-02-04T06:28:51;73.93;;;28.02;;
85381;SDS011;75790;40.308;44.272;2024-02-04T06:31:17;96.88;;;34.67;;
85381;SDS011;75790;40.308;44.272;2024-02-04T06:33:43;93.95;;;34.38;;
85381;SDS011;75790;40.308;44.272;2024-02-04T06:36:09;83.97;;;30.80;;
85381;SDS011;75790;40.308;44.272;2024-02-04T06:38:36;87.55;;;30.88;;
85381;SDS011;75790;40.308;44.272;2024-02-04T06:41:01;77.57;;;27.95;;
85381;SDS011;75790;40.308;44.272;2024-02-04T06:43:27;72.78;;;28.80;;
85381;SDS011;75790;40.308;44.272;2024-02-04T06:45:53;81.55;;;31.33;;
85381;SDS011;75790;40.308;44.272;2024-02-04T06:48:19;79.32;;;31.80;;
85381;SDS011;75790;40.308;44.272;2024-02-04T06:50:45;74.80;;;28.27;;
85381;SDS011;75790;40.308;44.272;2024-02-04T06:53:15;65.93;;;25.92;;
85381;SDS011;75790;40.308;44.272;2024-02-04T06:55:41;72.45;;;29.63;;
85381;SDS011;75790;40.308;44.272;2024-02-04T06:58:07;61.13;;;25.67;;
85381;SDS011;75790;40.308;44.272;2024-02-04T07:00:33;68.38;;;28.48;;
85381;SDS011;75790;40.308;44.272;2024-02-04T07:02:58;59.42;;;25.08;;
85381;SDS011;75790;40.308;44.272;2024-02-04T07:05:24;63.58;;;25.92;;
85381;SDS011;75790;40.308;44.272;2024-02-04T07:07:50;57.70;;;25.33;;
85381;SDS011;75790;40.308;44.272;2024-02-04T07:10:17;55.22;;;24.75;;
85381;SDS011;75790;40.308;44.272;2024-02-04T07:12:44;52.22;;;23.65;;
85381;SDS011;75790;40.308;44.272;2024-02-04T07:15:10;56.13;;;25.25;;
85381;SDS011;75790;40.308;44.272;2024-02-04T07:17:36;47.00;;;21.20;;
85381;SDS011;75790;40.308;44.272;2024-02-04T07:20:02;47.28;;;22.20;;
85381;SDS011;75790;40.308;44.272;2024-02-04T07:22:28;47.40;;;22.38;;
85381;SDS011;75790;40.308;44.272;2024-02-04T07:24:54;48.65;;;23.05;;
85381;SDS011;75790;40.308;44.272;2024-02-04T07:27:19;43.90;;;20.73;;
85381;SDS011;75790;40.308;44.272;2024-02-04T07:29:45;41.25;;;19.55;;
85381;SDS011;75790;40.308;44.272;2024-02-04T07:32:15;43.33;;;20.75;;
85381;SDS011;75790;40.308;44.272;2024-02-04T07:34:41;44.05;;;19.65;;
85381;SDS011;75790;40.308;44.272;2024-02-04T07:37:06;40.42;;;19.40;;
85381;SDS011;75790;40.308;44.272;2024-02-04T07:39:32;38.70;;;18.75;;
85381;SDS011;75790;40.308;44.272;2024-02-04T07:41:58;40.17;;;18.27;;
85381;SDS011;75790;40.308;44.272;2024-02-04T07:44:27;40.85;;;18.50;;
85381;SDS011;75790;40.308;44.272;2024-02-04T07:46:54;37.00;;;17.77;;
85381;SDS011;75790;40.308;44.272;2024-02-04T07:49:20;36.92;;;18.70;;
85381;SDS011;75790;40.308;44.272;2024-02-04T07:51:46;36.67;;;18.05;;
85381;SDS011;75790;40.308;44.272;2024-02-04T07:54:11;35.40;;;16.45;;
85381;SDS011;75790;40.308;44.272;2024-02-04T07:56:37;36.15;;;16.73;;
85381;SDS011;75790;40.308;44.272;2024-02-04T07:59:03;33.00;;;16.25;;
85381;SDS011;75790;40.308;44.272;2024-02-04T08:01:29;39.80;;;18.48;;
85381;SDS011;75790;40.308;44.272;2024-02-04T08:03:55;44.55;;;19.17;;
85381;SDS011;75790;40.308;44.272;2024-02-04T08:06:21;54.78;;;24.88;;
85381;SDS011;75790;40.308;44.272;2024-02-04T08:08:47;58.33;;;25.02;;
85381;SDS011;75790;40.308;44.272;2024-02-04T08:11:17;65.57;;;27.13;;
85381;SDS011;75790;40.308;44.272;2024-02-04T08:13:43;68.78;;;28.58;;
85381;SDS011;75790;40.308;44.272;2024-02-04T08:16:09;71.22;;;30.17;;
85381;SDS011;75790;40.308;44.272;2024-02-04T08:18:36;70.38;;;31.15;;
85381;SDS011;75790;40.308;44.272;2024-02-04T08:21:02;94.22;;;38.67;;
85381;SDS011;75790;40.308;44.272;2024-02-04T08:23:28;99.53;;;39.35;;
85381;SDS011;75790;40.308;44.272;2024-02-04T08:25:54;100.95;;;40.95;;
85381;SDS011;75790;40.308;44.272;2024-02-04T08:28:21;92.88;;;39.17;;
85381;SDS011;75790;40.308;44.272;2024-02-04T08:30:48;118.93;;;45.75;;
85381;SDS011;75790;40.308;44.272;2024-02-04T08:33:14;101.82;;;41.92;;
85381;SDS011;75790;40.308;44.272;2024-02-04T08:35:40;109.35;;;43.80;;
85381;SDS011;75790;40.308;44.272;2024-02-04T08:38:06;106.63;;;44.60;;
85381;SDS011;75790;40.308;44.272;2024-02-04T08:40:32;104.50;;;42.65;;
85381;SDS011;75790;40.308;44.272;2024-02-04T08:42:58;110.40;;;44.58;;
85381;SDS011;75790;40.308;44.272;2024-02-04T08:45:23;114.18;;;44.92;;
85381;SDS011;75790;40.308;44.272;2024-02-04T08:47:49;107.70;;;43.00;;
85381;SDS011;75790;40.308;44.272;2024-02-04T08:50:15;106.55;;;43.80;;
85381;SDS011;75790;40.308;44.272;2024-02-04T08:52:42;85.85;;;36.15;;
85381;SDS011;75790;40.308;44.272;2024-02-04T08:55:07;90.53;;;39.65;;
85381;SDS011;75790;40.308;44.272;2024-02-04T08:57:34;83.18;;;34.42;;
85381;SDS011;75790;40.308;44.272;2024-02-04T09:00:00;80.25;;;33.47;;
85381;SDS011;75790;40.308;44.272;2024-02-04T09:02:25;74.35;;;33.10;;
85381;SDS011;75790;40.308;44.272;2024-02-04T09:04:51;65.50;;;30.75;;
85381;SDS011;75790;40.308;44.272;2024-02-04T09:07:17;69.97;;;28.65;;
85381;SDS011;75790;40.308;44.272;2024-02-04T09:09:43;71.45;;;28.30;;
85381;SDS011;75790;40.308;44.272;2024-02-04T09:12:09;54.30;;;24.60;;
85381;SDS011;75790;40.308;44.272;2024-02-04T09:14:35;57.38;;;25.77;;
85381;SDS011;75790;40.308;44.272;2024-02-04T09:17:04;58.40;;;27.00;;
85381;SDS011;75790;40.308;44.272;2024-02-04T09:19:31;57.80;;;25.13;;
85381;SDS011;75790;40.308;44.272;2024-02-04T09:21:57;60.03;;;26.02;;
85381;SDS011;75790;40.308;44.272;2024-02-04T09:24:23;58.78;;;26.02;;
85381;SDS011;75790;40.308;44.272;2024-02-04T09:26:49;58.75;;;24.98;;
85381;SDS011;75790;40.308;44.272;2024-02-04T09:29:14;60.92;;;25.30;;
85381;SDS011;75790;40.308;44.272;2024-02-04T09:31:40;58.28;;;24.45;;
85381;SDS011;75790;40.308;44.272;2024-02-04T09:34:06;60.90;;;26.25;;
85381;SDS011;75790;40.308;44.272;2024-02-04T09:36:32;60.17;;;26.27;;
85381;SDS011;75790;40.308;44.272;2024-02-04T09:38:58;57.17;;;24.38;;
85381;SDS011;75790;40.308;44.272;2024-02-04T09:41:24;59.22;;;25.52;;
85381;SDS011;75790;40.308;44.272;2024-02-04T09:43:52;57.55;;;25.02;;
85381;SDS011;75790;40.308;44.272;2024-02-04T09:46:18;56.30;;;24.27;;
85381;SDS011;75790;40.308;44.272;2024-02-04T09:48:44;62.47;;;25.83;;
85381;SDS011;75790;40.308;44.272;2024-02-04T09:51:11;61.00;;;26.98;;
85381;SDS011;75790;40.308;44.272;2024-02-04T09:53:38;60.45;;;26.27;;
85381;SDS011;75790;40.308;44.272;2024-02-04T09:56:09;66.13;;;26.05;;
85381;SDS011;75790;40.308;44.272;2024-02-04T09:58:36;61.10;;;25.80;;
85381;SDS011;75790;40.308;44.272;2024-02-04T10:01:02;66.65;;;26.42;;
85381;SDS011;75790;40.308;44.272;2024-02-04T10:03:29;60.58;;;26.52;;
85381;SDS011;75790;40.308;44.272;2024-02-04T10:05:55;68.88;;;28.48;;
85381;SDS011;75790;40.308;44.272;2024-02-04T10:08:21;72.38;;;29.48;;
85381;SDS011;75790;40.308;44.272;2024-02-04T10:10:47;72.80;;;31.35;;
85381;SDS011;75790;40.308;44.272;2024-02-04T10:13:13;68.28;;;28.23;;
85381;SDS011;75790;40.308;44.272;2024-02-04T10:15:39;74.28;;;30.35;;
85381;SDS011;75790;40.308;44.272;2024-02-04T10:18:06;76.38;;;30.35;;
85381;SDS011;75790;40.308;44.272;2024-02-04T10:20:33;73.47;;;29.65;;
85381;SDS011;75790;40.308;44.272;2024-02-04T10:22:59;73.32;;;29.08;;
85381;SDS011;75790;40.308;44.272;2024-02-04T10:25:25;70.18;;;28.70;;
85381;SDS011;75790;40.308;44.272;2024-02-04T10:27:51;63.72;;;26.80;;
85381;SDS011;75790;40.308;44.272;2024-02-04T10:30:19;64.93;;;27.85;;
85381;SDS011;75790;40.308;44.272;2024-02-04T10:32:46;76.18;;;29.25;;
85381;SDS011;75790;40.308;44.272;2024-02-04T10:35:13;64.78;;;27.60;;
85381;SDS011;75790;40.308;44.272;2024-02-04T10:37:39;59.42;;;26.23;;
85381;SDS011;75790;40.308;44.272;2024-02-04T10:40:05;62.00;;;27.02;;
85381;SDS011;75790;40.308;44.272;2024-02-04T10:42:32;68.82;;;28.05;;
85381;SDS011;75790;40.308;44.272;2024-02-04T10:44:59;64.68;;;27.15;;
85381;SDS011;75790;40.308;44.272;2024-02-04T10:47:29;62.72;;;26.92;;
85381;SDS011;75790;40.308;44.272;2024-02-04T10:50:00;64.05;;;27.10;;
85381;SDS011;75790;40.308;44.272;2024-02-04T10:52:28;59.63;;;25.50;;
85381;SDS011;75790;40.308;44.272;2024-02-04T10:55:05;69.72;;;28.73;;
85381;SDS011;75790;40.308;44.272;2024-02-04T10:57:33;69.32;;;28.63;;
85381;SDS011;75790;40.308;44.272;2024-02-04T11:00:00;63.97;;;27.60;;
85381;SDS011;75790;40.308;44.272;2024-02-04T11:02:29;68.90;;;28.48;;
85381;SDS011;75790;40.308;44.272;2024-02-04T11:04:57;69.82;;;27.90;;
85381;SDS011;75790;40.308;44.272;2024-02-04T11:07:23;68.63;;;29.70;;
85381;SDS011;75790;40.308;44.272;2024-02-04T11:09:49;74.50;;;30.20;;
85381;SDS011;75790;40.308;44.272;2024-02-04T11:12:16;70.90;;;27.02;;
85381;SDS011;75790;40.308;44.272;2024-02-04T11:14:47;65.15;;;28.00;;
85381;SDS011;75790;40.308;44.272;2024-02-04T11:17:19;67.75;;;28.25;;
85381;SDS011;75790;40.308;44.272;2024-02-04T11:20:13;72.50;;;29.10;;
85381;SDS011;75790;40.308;44.272;2024-02-04T11:25:44;77.22;;;31.95;;
85381;SDS011;75790;40.308;44.272;2024-02-04T11:28:12;75.10;;;31.25;;
85381;SDS011;75790;40.308;44.272;2024-02-04T11:30:38;79.35;;;32.30;;
85381;SDS011;75790;40.308;44.272;2024-02-04T11:33:05;92.78;;;35.50;;
85381;SDS011;75790;40.308;44.272;2024-02-04T11:35:35;84.97;;;33.40;;
85381;SDS011;75790;40.308;44.272;2024-02-04T11:38:04;86.88;;;34.05;;
85381;SDS011;75790;40.308;44.272;2024-02-04T11:40:31;86.40;;;35.45;;
85381;SDS011;75790;40.308;44.272;2024-02-04T11:43:14;88.03;;;33.97;;
85381;SDS011;75790;40.308;44.272;2024-02-04T11:45:41;88.13;;;34.30;;
85381;SDS011;75790;40.308;44.272;2024-02-04T11:48:08;87.70;;;34.00;;
85381;SDS011;75790;40.308;44.272;2024-02-04T11:50:39;92.68;;;36.55;;
85381;SDS011;75790;40.308;44.272;2024-02-04T11:55:35;81.78;;;33.92;;
85381;SDS011;75790;40.308;44.272;2024-02-04T11:58:03;90.45;;;36.45;;
85381;SDS011;75790;40.308;44.272;2024-02-04T12:00:32;90.90;;;35.72;;
85381;SDS011;75790;40.308;44.272;2024-02-04T12:03:01;87.28;;;34.40;;
85381;SDS011;75790;40.308;44.272;2024-02-04T12:05:33;87.07;;;34.13;;
85381;SDS011;75790;40.308;44.272;2024-02-04T12:08:03;90.93;;;35.80;;
85381;SDS011;75790;40.308;44.272;2024-02-04T12:10:31;93.65;;;35.03;;
85381;SDS011;75790;40.308;44.272;2024-02-04T12:13:04;90.75;;;36.80;;
85381;SDS011;75790;40.308;44.272;2024-02-04T12:15:35;88.13;;;33.47;;
85381;SDS011;75790;40.308;44.272;2024-02-04T12:18:08;97.55;;;37.95;;
85381;SDS011;75790;40.308;44.272;2024-02-04T12:20:35;89.68;;;37.05;;
85381;SDS011;75790;40.308;44.272;2024-02-04T12:23:05;94.68;;;35.25;;
85381;SDS011;75790;40.308;44.272;2024-02-04T12:25:34;94.35;;;37.28;;
85381;SDS011;75790;40.308;44.272;2024-02-04T12:28:01;90.68;;;35.42;;
85381;SDS011;75790;40.308;44.272;2024-02-04T12:30:28;90.20;;;35.47;;
85381;SDS011;75790;40.308;44.272;2024-02-04T12:33:02;96.30;;;36.83;;
85381;SDS011;75790;40.308;44.272;2024-02-04T12:35:32;96.13;;;37.28;;
85381;SDS011;75790;40.308;44.272;2024-02-04T12:37:58;93.57;;;36.88;;
85381;SDS011;75790;40.308;44.272;2024-02-04T12:40:25;80.47;;;32.15;;
85381;SDS011;75790;40.308;44.272;2024-02-04T12:42:55;85.88;;;32.00;;
85381;SDS011;75790;40.308;44.272;2024-02-04T12:45:22;86.18;;;32.67;;
85381;SDS011;75790;40.308;44.272;2024-02-04T12:47:52;89.22;;;34.95;;
85381;SDS011;75790;40.308;44.272;2024-02-04T12:50:19;83.75;;;33.55;;
85381;SDS011;75790;40.308;44.272;2024-02-04T12:52:46;85.88;;;34.60;;
85381;SDS011;75790;40.308;44.272;2024-02-04T12:55:22;79.75;;;31.38;;
85381;SDS011;75790;40.308;44.272;2024-02-04T12:57:49;84.68;;;32.72;;
85381;SDS011;75790;40.308;44.272;2024-02-04T13:00:18;84.25;;;33.85;;
85381;SDS011;75790;40.308;44.272;2024-02-04T13:02:44;80.03;;;31.58;;
85381;SDS011;75790;40.308;44.272;2024-02-04T13:05:20;74.55;;;30.23;;
85381;SDS011;75790;40.308;44.272;2024-02-04T13:07:53;83.13;;;32.53;;
85381;SDS011;75790;40.308;44.272;2024-02-04T13:10:21;81.72;;;31.70;;
85381;SDS011;75790;40.308;44.272;2024-02-04T13:13:09;79.80;;;30.63;;
85381;SDS011;75790;40.308;44.272;2024-02-04T13:15:42;80.43;;;31.17;;
85381;SDS011;75790;40.308;44.272;2024-02-04T13:18:09;77.32;;;28.73;;
85381;SDS011;75790;40.308;44.272;2024-02-04T13:20:40;79.63;;;30.75;;
85381;SDS011;75790;40.308;44.272;2024-02-04T13:23:07;78.22;;;32.25;;
85381;SDS011;75790;40.308;44.272;2024-02-04T13:25:33;78.72;;;31.40;;
85381;SDS011;75790;40.308;44.272;2024-02-04T13:27:59;80.63;;;30.92;;
85381;SDS011;75790;40.308;44.272;2024-02-04T13:30:25;79.40;;;31.08;;
85381;SDS011;75790;40.308;44.272;2024-02-04T13:32:51;77.13;;;29.52;;
85381;SDS011;75790;40.308;44.272;2024-02-04T13:35:17;80.45;;;31.15;;
85381;SDS011;75790;40.308;44.272;2024-02-04T13:37:45;75.15;;;30.50;;
85381;SDS011;75790;40.308;44.272;2024-02-04T13:40:17;84.70;;;31.23;;
85381;SDS011;75790;40.308;44.272;2024-02-04T13:42:47;79.22;;;30.33;;
85381;SDS011;75790;40.308;44.272;2024-02-04T13:45:13;79.13;;;29.08;;
85381;SDS011;75790;40.308;44.272;2024-02-04T13:47:39;73.25;;;30.10;;
85381;SDS011;75790;40.308;44.272;2024-02-04T13:50:06;78.53;;;32.55;;
85381;SDS011;75790;40.308;44.272;2024-02-04T13:52:36;69.22;;;27.67;;
85381;SDS011;75790;40.308;44.272;2024-02-04T13:55:02;78.60;;;30.38;;
85381;SDS011;75790;40.308;44.272;2024-02-04T13:57:34;88.68;;;32.35;;
85381;SDS011;75790;40.308;44.272;2024-02-04T14:00:01;82.18;;;30.33;;
85381;SDS011;75790;40.308;44.272;2024-02-04T14:02:32;79.57;;;29.02;;
85381;SDS011;75790;40.308;44.272;2024-02-04T14:04:58;74.65;;;29.08;;
85381;SDS011;75790;40.308;44.272;2024-02-04T14:07:25;88.97;;;33.90;;
85381;SDS011;75790;40.308;44.272;2024-02-04T14:09:51;85.30;;;31.98;;
85381;SDS011;75790;40.308;44.272;2024-02-04T14:12:17;80.40;;;30.38;;
85381;SDS011;75790;40.308;44.272;2024-02-04T14:14:43;85.78;;;30.35;;